createdAt,value
2017-03-18T00:00:47.694Z,0
2017-03-18T00:01:57.982Z,0
2017-03-18T00:03:08.280Z,0
2017-03-18T00:04:18.583Z,0
2017-03-18T00:05:28.882Z,0
2017-03-18T00:06:38.862Z,0
2017-03-18T00:07:49.185Z,0
2017-03-18T00:08:59.506Z,0
2017-03-18T00:10:09.818Z,0
2017-03-18T00:11:20.058Z,0
2017-03-18T00:12:30.368Z,0
2017-03-18T00:13:40.687Z,0
2017-03-18T00:14:51.014Z,0
2017-03-18T00:16:01.015Z,0
2017-03-18T00:17:11.569Z,0
2017-03-18T00:18:21.886Z,0
2017-03-18T00:19:31.870Z,0
2017-03-18T00:20:41.547Z,0
2017-03-18T00:21:51.850Z,0
2017-03-18T00:23:02.458Z,0
2017-03-18T00:24:12.754Z,0
2017-03-18T00:25:22.749Z,0
2017-03-18T00:26:33.044Z,0
2017-03-18T00:27:43.371Z,0
2017-03-18T00:28:53.950Z,0
2017-03-18T00:30:03.930Z,0
2017-03-18T00:31:14.226Z,0
2017-03-18T00:32:24.529Z,0
2017-03-18T00:33:34.836Z,0
2017-03-18T00:34:45.085Z,0
2017-03-18T00:35:55.390Z,0
2017-03-18T00:37:05.380Z,0
2017-03-18T00:38:15.697Z,0
2017-03-18T00:39:26.011Z,0
2017-03-18T00:40:36.299Z,0
2017-03-18T00:41:45.966Z,0
2017-03-18T00:42:56.271Z,0
2017-03-18T00:44:06.582Z,0
2017-03-18T00:45:16.877Z,0
2017-03-18T00:46:27.431Z,0
2017-03-18T00:47:37.742Z,0
2017-03-18T00:48:48.045Z,0
2017-03-18T00:49:58.093Z,0
2017-03-18T00:51:08.550Z,0
2017-03-18T00:52:19.096Z,0
2017-03-18T00:53:29.405Z,0
2017-03-18T00:54:39.719Z,0
2017-03-18T00:55:50.010Z,0
2017-03-18T00:56:59.997Z,0
2017-03-18T00:58:10.276Z,0
2017-03-18T00:59:20.599Z,0
2017-03-18T01:00:30.896Z,0
2017-03-18T01:01:41.221Z,0
2017-03-18T01:02:51.533Z,0
2017-03-18T01:04:02.096Z,0
2017-03-18T01:05:12.387Z,0
2017-03-18T01:06:22.710Z,0
2017-03-18T01:07:33.044Z,0
2017-03-18T01:08:43.361Z,0
2017-03-18T01:09:53.915Z,0
2017-03-18T01:11:04.228Z,0
2017-03-18T01:12:14.522Z,0
2017-03-18T01:13:24.826Z,0
2017-03-18T01:14:35.130Z,0
2017-03-18T01:15:45.371Z,0
2017-03-18T01:16:55.661Z,0
2017-03-18T01:18:05.652Z,0
2017-03-18T01:19:15.658Z,0
2017-03-18T01:20:25.971Z,0
2017-03-18T01:21:36.518Z,0
2017-03-18T01:22:46.822Z,0
2017-03-18T01:23:57.132Z,0
2017-03-18T01:25:07.437Z,0
2017-03-18T01:26:17.750Z,0
2017-03-18T01:27:28.301Z,0
2017-03-18T01:28:38.289Z,0
2017-03-18T01:29:48.583Z,0
2017-03-18T01:30:58.892Z,0
2017-03-18T01:32:08.879Z,0
2017-03-18T01:33:19.108Z,0
2017-03-18T01:34:29.104Z,0
2017-03-18T01:35:39.088Z,0
2017-03-18T01:36:49.399Z,0
2017-03-18T01:37:59.082Z,0
2017-03-18T01:39:09.630Z,0
2017-03-18T01:40:19.622Z,0
2017-03-18T01:41:29.914Z,0
2017-03-18T01:42:40.228Z,0
2017-03-18T01:43:50.533Z,0
2017-03-18T01:45:01.142Z,0
2017-03-18T01:46:11.424Z,0
2017-03-18T01:47:21.404Z,0
2017-03-18T01:48:31.703Z,0
2017-03-18T01:49:41.378Z,0
2017-03-18T01:50:51.930Z,0
2017-03-18T01:52:02.240Z,0
2017-03-18T01:53:12.548Z,0
2017-03-18T01:54:22.548Z,0
2017-03-18T01:55:32.855Z,0
2017-03-18T01:56:43.414Z,0
2017-03-18T01:57:53.710Z,0
2017-03-18T01:59:04.023Z,0
2017-03-18T02:00:14.317Z,0
2017-03-18T02:01:24.618Z,0
2017-03-18T02:02:35.222Z,0
2017-03-18T02:03:45.530Z,0
2017-03-18T02:04:55.985Z,0
2017-03-18T02:06:06.294Z,0
2017-03-18T02:07:16.607Z,0
2017-03-18T02:08:27.156Z,0
2017-03-18T02:09:37.462Z,0
2017-03-18T02:10:47.753Z,0
2017-03-18T02:11:57.763Z,0
2017-03-18T02:13:08.088Z,0
2017-03-18T02:14:18.643Z,0
2017-03-18T02:15:28.960Z,0
2017-03-18T02:16:39.254Z,0
2017-03-18T02:17:49.574Z,0
2017-03-18T02:18:59.885Z,0
2017-03-18T02:20:10.432Z,0
2017-03-18T02:21:20.718Z,0
2017-03-18T02:22:31.027Z,0
2017-03-18T02:23:41.027Z,0
2017-03-18T02:24:51.332Z,0
2017-03-18T02:26:01.628Z,0
2017-03-18T02:27:11.935Z,0
2017-03-18T02:28:21.917Z,0
2017-03-18T02:29:32.227Z,0
2017-03-18T02:30:42.534Z,0
2017-03-18T02:31:52.774Z,0
2017-03-18T02:33:03.229Z,0
2017-03-18T02:34:13.225Z,0
2017-03-18T02:35:23.988Z,0
2017-03-18T02:36:34.278Z,0
2017-03-18T02:37:44.564Z,0
2017-03-18T02:38:54.551Z,0
2017-03-18T02:40:04.851Z,0
2017-03-18T02:41:15.154Z,0
2017-03-18T02:42:25.460Z,0
2017-03-18T02:43:35.706Z,0
2017-03-18T02:44:45.696Z,0
2017-03-18T02:45:55.375Z,0
2017-03-18T02:47:05.684Z,0
2017-03-18T02:48:15.986Z,0
2017-03-18T02:49:26.585Z,0
2017-03-18T02:50:36.890Z,0
2017-03-18T02:51:47.191Z,0
2017-03-18T02:52:57.170Z,0
2017-03-18T02:54:07.480Z,0
2017-03-18T02:55:18.067Z,0
2017-03-18T02:56:28.054Z,0
2017-03-18T02:57:38.042Z,0
2017-03-18T02:58:48.342Z,0
2017-03-18T02:59:58.330Z,0
2017-03-18T03:01:08.876Z,0
2017-03-18T03:02:19.174Z,0
2017-03-18T03:03:29.510Z,0
2017-03-18T03:04:39.494Z,0
2017-03-18T03:05:49.475Z,0
2017-03-18T03:06:59.712Z,0
2017-03-18T03:08:10.020Z,0
2017-03-18T03:09:20.316Z,0
2017-03-18T03:10:30.617Z,0
2017-03-18T03:11:40.934Z,0
2017-03-18T03:12:50.864Z,0
2017-03-18T03:14:01.176Z,0
2017-03-18T03:15:11.155Z,0
2017-03-18T03:16:21.149Z,0
2017-03-18T03:17:31.562Z,0
2017-03-18T03:18:41.808Z,0
2017-03-18T03:19:52.128Z,0
2017-03-18T03:21:02.425Z,0
2017-03-18T03:22:12.717Z,0
2017-03-18T03:23:22.704Z,0
2017-03-18T03:24:32.957Z,0
2017-03-18T03:25:43.260Z,0
2017-03-18T03:26:53.559Z,0
2017-03-18T03:28:03.884Z,0
2017-03-18T03:29:14.178Z,0
2017-03-18T03:30:24.738Z,0
2017-03-18T03:31:35.046Z,0
2017-03-18T03:32:45.348Z,0
2017-03-18T03:33:55.651Z,0
2017-03-18T03:35:05.952Z,0
2017-03-18T03:36:16.227Z,0
2017-03-18T03:37:26.211Z,0
2017-03-18T03:38:36.514Z,0
2017-03-18T03:39:46.495Z,0
2017-03-18T03:40:56.473Z,0
2017-03-18T03:42:07.068Z,0
2017-03-18T03:43:17.363Z,0
2017-03-18T03:44:27.660Z,0
2017-03-18T03:45:37.964Z,0
2017-03-18T03:46:48.259Z,0
2017-03-18T03:47:58.812Z,0
2017-03-18T03:49:08.809Z,0
2017-03-18T03:50:18.784Z,0
2017-03-18T03:51:29.082Z,0
2017-03-18T03:52:39.377Z,0
2017-03-18T03:53:49.940Z,0
2017-03-18T03:55:00.239Z,0
2017-03-18T03:56:10.525Z,0
2017-03-18T03:57:20.838Z,0
2017-03-18T03:58:30.819Z,0
2017-03-18T03:59:41.091Z,0
2017-03-18T04:00:51.076Z,0
2017-03-18T04:02:01.386Z,0
2017-03-18T04:03:11.682Z,0
2017-03-18T04:04:21.677Z,0
2017-03-18T04:05:31.958Z,0
2017-03-18T04:06:41.939Z,0
2017-03-18T04:07:51.939Z,0
2017-03-18T04:09:02.246Z,0
2017-03-18T04:10:12.589Z,0
2017-03-18T04:11:22.819Z,0
2017-03-18T04:12:32.803Z,0
2017-03-18T04:13:42.785Z,0
2017-03-18T04:14:53.100Z,0
2017-03-18T04:16:03.085Z,0
2017-03-18T04:17:13.628Z,0
2017-03-18T04:18:23.934Z,0
2017-03-18T04:19:34.256Z,0
2017-03-18T04:20:44.563Z,0
2017-03-18T04:21:54.534Z,0
2017-03-18T04:23:05.099Z,0
2017-03-18T04:24:15.408Z,0
2017-03-18T04:25:25.387Z,0
2017-03-18T04:26:35.690Z,0
2017-03-18T04:27:45.988Z,0
2017-03-18T04:28:56.592Z,0
2017-03-18T04:30:06.883Z,0
2017-03-18T04:31:17.190Z,0
2017-03-18T04:32:27.481Z,0
2017-03-18T04:33:37.789Z,0
2017-03-18T04:34:48.390Z,0
2017-03-18T04:35:58.694Z,0
2017-03-18T04:37:08.715Z,0
2017-03-18T04:38:19.008Z,0
2017-03-18T04:39:29.306Z,0
2017-03-18T04:40:39.539Z,0
2017-03-18T04:41:49.843Z,0
2017-03-18T04:42:59.837Z,0
2017-03-18T04:44:10.125Z,0
2017-03-18T04:45:20.118Z,0
2017-03-18T04:46:30.390Z,0
2017-03-18T04:47:40.686Z,0
2017-03-18T04:48:50.995Z,0
2017-03-18T04:50:01.001Z,0
2017-03-18T04:51:11.296Z,0
2017-03-18T04:52:21.843Z,0
2017-03-18T04:53:32.151Z,0
2017-03-18T04:54:42.444Z,0
2017-03-18T04:55:52.745Z,0
2017-03-18T04:57:03.030Z,0
2017-03-18T04:58:13.580Z,0
2017-03-18T04:59:23.886Z,0
2017-03-18T05:00:34.193Z,0
2017-03-18T05:01:44.477Z,0
2017-03-18T05:02:54.784Z,0
2017-03-18T05:04:05.335Z,0
2017-03-18T05:05:15.632Z,0
2017-03-18T05:06:25.939Z,0
2017-03-18T05:07:36.230Z,0
2017-03-18T05:08:46.542Z,0
2017-03-18T05:09:57.145Z,0
2017-03-18T05:11:07.433Z,0
2017-03-18T05:12:17.725Z,0
2017-03-18T05:13:28.042Z,0
2017-03-18T05:14:38.339Z,0
2017-03-18T05:15:48.621Z,0
2017-03-18T05:16:58.934Z,0
2017-03-18T05:18:09.242Z,0
2017-03-18T05:19:19.242Z,0
2017-03-18T05:20:29.222Z,0
2017-03-18T05:21:39.808Z,0
2017-03-18T05:22:49.800Z,0
2017-03-18T05:24:00.111Z,0
2017-03-18T05:25:10.109Z,0
2017-03-18T05:26:20.403Z,0
2017-03-18T05:27:30.969Z,0
2017-03-18T05:28:41.267Z,0
2017-03-18T05:29:51.561Z,0
2017-03-18T05:31:01.868Z,0
2017-03-18T05:32:12.160Z,0
2017-03-18T05:33:22.752Z,0
2017-03-18T05:34:33.050Z,0
2017-03-18T05:35:42.720Z,0
2017-03-18T05:36:53.034Z,0
2017-03-18T05:38:03.338Z,0
2017-03-18T05:39:13.633Z,0
2017-03-18T05:40:23.619Z,0
2017-03-18T05:41:33.936Z,0
2017-03-18T05:42:44.234Z,0
2017-03-18T05:43:54.215Z,0
2017-03-18T05:45:04.451Z,0
2017-03-18T05:46:14.749Z,0
2017-03-18T05:47:24.724Z,0
2017-03-18T05:48:35.032Z,0
2017-03-18T05:49:45.028Z,0
2017-03-18T05:50:55.565Z,0
2017-03-18T05:52:05.535Z,0
2017-03-18T05:53:15.837Z,0
2017-03-18T05:54:26.141Z,0
2017-03-18T05:55:36.445Z,0
2017-03-18T05:56:47.044Z,0
2017-03-18T05:57:57.345Z,0
2017-03-18T05:59:07.652Z,0
2017-03-18T06:00:17.965Z,0
2017-03-18T06:01:28.260Z,0
2017-03-18T06:02:38.522Z,0
2017-03-18T06:03:48.829Z,0
2017-03-18T06:04:59.141Z,0
2017-03-18T06:06:09.440Z,0
2017-03-18T06:07:19.421Z,0
2017-03-18T06:08:29.418Z,4
2017-03-18T06:09:39.446Z,4
2017-03-18T06:10:49.120Z,0
2017-03-18T06:11:58.815Z,0
2017-03-18T06:13:09.014Z,0
2017-03-18T06:14:19.563Z,4
2017-03-18T06:15:29.879Z,0
2017-03-18T06:16:39.859Z,0
2017-03-18T06:17:50.166Z,0
2017-03-18T06:19:00.458Z,0
2017-03-18T06:20:11.020Z,0
2017-03-18T06:21:21.018Z,0
2017-03-18T06:22:31.360Z,0
2017-03-18T06:23:41.667Z,0
2017-03-18T06:24:51.958Z,0
2017-03-18T06:26:02.192Z,4
2017-03-18T06:27:12.496Z,0
2017-03-18T06:28:22.804Z,4
2017-03-18T06:29:33.127Z,4
2017-03-18T06:30:43.116Z,0
2017-03-18T06:31:53.347Z,4
2017-03-18T06:33:03.645Z,4
2017-03-18T06:34:13.956Z,4
2017-03-18T06:35:23.965Z,4
2017-03-18T06:36:34.272Z,4
2017-03-18T06:37:44.831Z,4
2017-03-18T06:38:54.810Z,4
2017-03-18T06:40:05.104Z,4
2017-03-18T06:41:15.130Z,0
2017-03-18T06:42:25.428Z,4
2017-03-18T06:43:35.675Z,4
2017-03-18T06:44:45.972Z,4
2017-03-18T06:45:56.319Z,4
2017-03-18T06:47:06.618Z,8
2017-03-18T06:48:16.936Z,8
2017-03-18T06:49:27.539Z,8
2017-03-18T06:50:37.843Z,4
2017-03-18T06:51:48.151Z,4
2017-03-18T06:52:58.138Z,0
2017-03-18T06:54:08.442Z,0
2017-03-18T06:55:18.992Z,4
2017-03-18T06:56:29.296Z,4
2017-03-18T06:57:39.635Z,4
2017-03-18T06:58:49.943Z,4
2017-03-18T07:00:00.265Z,4
2017-03-18T07:01:10.881Z,4
2017-03-18T07:02:21.178Z,4
2017-03-18T07:03:31.481Z,4
2017-03-18T07:04:41.774Z,4
2017-03-18T07:05:52.112Z,8
2017-03-18T07:07:02.720Z,4
2017-03-18T07:08:13.018Z,4
2017-03-18T07:09:23.318Z,4
2017-03-18T07:10:33.300Z,4
2017-03-18T07:11:43.287Z,4
2017-03-18T07:12:53.899Z,4
2017-03-18T07:14:04.201Z,8
2017-03-18T07:15:14.516Z,8
2017-03-18T07:16:24.825Z,4
2017-03-18T07:17:35.123Z,4
2017-03-18T07:18:45.392Z,4
2017-03-18T07:19:55.693Z,4
2017-03-18T07:21:06.003Z,4
2017-03-18T07:22:16.307Z,4
2017-03-18T07:23:25.985Z,4
2017-03-18T07:24:36.243Z,4
2017-03-18T07:25:46.541Z,4
2017-03-18T07:26:56.848Z,4
2017-03-18T07:28:07.150Z,4
2017-03-18T07:29:17.461Z,4
2017-03-18T07:30:28.067Z,4
2017-03-18T07:31:38.398Z,4
2017-03-18T07:32:48.707Z,4
2017-03-18T07:33:59.005Z,4
2017-03-18T07:35:09.325Z,4
2017-03-18T07:36:20.111Z,0
2017-03-18T07:37:30.410Z,0
2017-03-18T07:38:40.706Z,4
2017-03-18T07:39:50.701Z,4
2017-03-18T07:41:01.004Z,4
2017-03-18T07:42:11.229Z,8
2017-03-18T07:43:21.557Z,4
2017-03-18T07:44:31.869Z,4
2017-03-18T07:45:42.160Z,8
2017-03-18T07:46:52.141Z,8
2017-03-18T07:48:02.388Z,4
2017-03-18T07:49:12.746Z,4
2017-03-18T07:50:23.078Z,8
2017-03-18T07:51:33.073Z,8
2017-03-18T07:52:42.845Z,4
2017-03-18T07:53:53.409Z,4
2017-03-18T07:55:03.419Z,8
2017-03-18T07:56:13.728Z,12
2017-03-18T07:57:24.054Z,8
2017-03-18T07:58:34.062Z,8
2017-03-18T07:59:44.608Z,8
2017-03-18T08:00:54.909Z,12
2017-03-18T08:02:05.237Z,8
2017-03-18T08:03:15.561Z,12
2017-03-18T08:04:25.876Z,8
2017-03-18T08:05:36.429Z,8
2017-03-18T08:06:46.731Z,8
2017-03-18T08:07:57.044Z,8
2017-03-18T08:09:07.360Z,8
2017-03-18T08:10:17.456Z,8
2017-03-18T08:11:28.057Z,12
2017-03-18T08:12:38.358Z,12
2017-03-18T08:13:48.666Z,8
2017-03-18T08:14:58.968Z,8
2017-03-18T08:16:09.261Z,8
2017-03-18T08:17:19.807Z,12
2017-03-18T08:18:30.106Z,12
2017-03-18T08:19:40.407Z,16
2017-03-18T08:20:50.744Z,12
2017-03-18T08:22:01.080Z,12
2017-03-18T08:23:11.933Z,12
2017-03-18T08:24:22.243Z,12
2017-03-18T08:25:32.226Z,12
2017-03-18T08:26:42.528Z,12
2017-03-18T08:27:52.839Z,8
2017-03-18T08:29:03.146Z,12
2017-03-18T08:30:13.460Z,12
2017-03-18T08:31:23.763Z,12
2017-03-18T08:32:34.058Z,20
2017-03-18T08:33:44.367Z,24
2017-03-18T08:34:54.947Z,20
2017-03-18T08:36:05.258Z,12
2017-03-18T08:37:15.565Z,20
2017-03-18T08:38:26.170Z,20
2017-03-18T08:39:36.506Z,16
2017-03-18T08:40:47.110Z,16
2017-03-18T08:41:57.474Z,16
2017-03-18T08:43:07.782Z,16
2017-03-18T08:44:17.779Z,16
2017-03-18T08:45:27.774Z,12
2017-03-18T08:46:37.754Z,16
2017-03-18T08:47:48.062Z,16
2017-03-18T08:48:58.371Z,20
2017-03-18T08:50:08.672Z,20
2017-03-18T08:51:18.980Z,20
2017-03-18T08:52:29.574Z,16
2017-03-18T08:53:39.875Z,20
2017-03-18T08:54:50.179Z,16
2017-03-18T08:56:00.477Z,16
2017-03-18T08:57:10.780Z,20
2017-03-18T08:58:21.330Z,12
2017-03-18T08:59:31.651Z,12
2017-03-18T09:00:41.946Z,12
2017-03-18T09:01:52.255Z,16
2017-03-18T09:03:02.563Z,16
2017-03-18T09:04:13.165Z,16
2017-03-18T09:05:23.494Z,16
2017-03-18T09:06:33.798Z,12
2017-03-18T09:07:44.113Z,16
2017-03-18T09:08:54.441Z,20
2017-03-18T09:10:05.062Z,20
2017-03-18T09:11:15.373Z,16
2017-03-18T09:12:25.376Z,20
2017-03-18T09:13:35.680Z,24
2017-03-18T09:14:45.983Z,20
2017-03-18T09:15:56.579Z,20
2017-03-18T09:17:06.880Z,16
2017-03-18T09:18:17.197Z,12
2017-03-18T09:19:27.511Z,12
2017-03-18T09:20:37.835Z,16
2017-03-18T09:21:48.396Z,20
2017-03-18T09:22:58.712Z,20
2017-03-18T09:24:09.030Z,16
2017-03-18T09:25:19.336Z,16
2017-03-18T09:26:29.647Z,20
2017-03-18T09:27:40.203Z,28
2017-03-18T09:28:50.512Z,28
2017-03-18T09:30:00.848Z,24
2017-03-18T09:31:10.841Z,24
2017-03-18T09:32:21.139Z,24
2017-03-18T09:33:31.072Z,24
2017-03-18T09:34:41.059Z,20
2017-03-18T09:35:51.376Z,16
2017-03-18T09:37:01.694Z,16
2017-03-18T09:38:12.014Z,16
2017-03-18T09:39:22.589Z,12
2017-03-18T09:40:32.899Z,16
2017-03-18T09:41:43.203Z,16
2017-03-18T09:42:52.881Z,16
2017-03-18T09:44:03.210Z,16
2017-03-18T09:45:13.522Z,16
2017-03-18T09:46:23.833Z,24
2017-03-18T09:47:34.154Z,16
2017-03-18T09:48:44.463Z,16
2017-03-18T09:49:54.758Z,12
2017-03-18T09:51:05.345Z,16
2017-03-18T09:52:15.651Z,12
2017-03-18T09:53:25.657Z,16
2017-03-18T09:54:35.974Z,16
2017-03-18T09:55:45.977Z,28
2017-03-18T09:56:56.535Z,32
2017-03-18T09:58:06.860Z,32
2017-03-18T09:59:17.184Z,28
2017-03-18T10:00:27.504Z,36
2017-03-18T10:01:37.846Z,36
2017-03-18T10:02:48.474Z,28
2017-03-18T10:03:58.481Z,32
2017-03-18T10:05:08.819Z,40
2017-03-18T10:06:19.126Z,40
2017-03-18T10:07:29.436Z,40
2017-03-18T10:08:40.025Z,36
2017-03-18T10:09:50.339Z,32
2017-03-18T10:11:00.658Z,28
2017-03-18T10:12:10.990Z,28
2017-03-18T10:13:20.994Z,24
2017-03-18T10:14:31.559Z,28
2017-03-18T10:15:41.878Z,28
2017-03-18T10:16:51.868Z,28
2017-03-18T10:18:01.865Z,32
2017-03-18T10:19:12.217Z,44
2017-03-18T10:20:22.822Z,48
2017-03-18T10:21:33.121Z,52
2017-03-18T10:22:43.436Z,68
2017-03-18T10:23:53.751Z,52
2017-03-18T10:25:04.084Z,84
2017-03-18T10:26:14.637Z,80
2017-03-18T10:27:24.934Z,56
2017-03-18T10:28:35.273Z,60
2017-03-18T10:29:45.591Z,48
2017-03-18T10:30:55.948Z,52
2017-03-18T10:32:06.511Z,72
2017-03-18T10:33:16.210Z,64
2017-03-18T10:34:25.276Z,52
2017-03-18T10:35:35.587Z,52
2017-03-18T10:36:45.888Z,44
2017-03-18T10:37:56.473Z,76
2017-03-18T10:39:06.788Z,80
2017-03-18T10:40:17.103Z,52
2017-03-18T10:41:27.412Z,76
2017-03-18T10:42:37.730Z,84
2017-03-18T10:43:48.295Z,72
2017-03-18T10:44:58.288Z,76
2017-03-18T10:46:08.572Z,68
2017-03-18T10:47:18.893Z,76
2017-03-18T10:48:29.189Z,76
2017-03-18T10:49:39.437Z,76
2017-03-18T10:50:49.753Z,76
2017-03-18T10:51:59.757Z,76
2017-03-18T10:53:09.773Z,76
2017-03-18T10:54:19.782Z,80
2017-03-18T10:55:30.400Z,80
2017-03-18T10:56:40.715Z,84
2017-03-18T10:57:51.037Z,48
2017-03-18T10:59:01.357Z,84
2017-03-18T11:00:11.359Z,48
2017-03-18T11:01:21.914Z,44
2017-03-18T11:02:32.221Z,44
2017-03-18T11:03:42.224Z,36
2017-03-18T11:04:52.533Z,36
2017-03-18T11:06:02.845Z,40
2017-03-18T11:07:13.452Z,36
2017-03-18T11:08:23.795Z,32
2017-03-18T11:09:34.089Z,32
2017-03-18T11:10:43.760Z,32
2017-03-18T11:11:53.746Z,32
2017-03-18T11:13:04.301Z,28
2017-03-18T11:14:14.630Z,28
2017-03-18T11:15:24.940Z,32
2017-03-18T11:16:35.271Z,32
2017-03-18T11:17:44.957Z,48
2017-03-18T11:18:55.565Z,52
2017-03-18T11:20:05.878Z,48
2017-03-18T11:21:16.185Z,68
2017-03-18T11:22:26.502Z,48
2017-03-18T11:23:36.851Z,44
2017-03-18T11:24:47.410Z,44
2017-03-18T11:25:57.720Z,40
2017-03-18T11:27:08.033Z,40
2017-03-18T11:28:18.382Z,80
2017-03-18T11:29:28.716Z,76
2017-03-18T11:30:39.277Z,44
2017-03-18T11:31:49.598Z,72
2017-03-18T11:32:59.900Z,48
2017-03-18T11:34:10.223Z,76
2017-03-18T11:35:20.523Z,76
2017-03-18T11:36:31.084Z,72
2017-03-18T11:37:41.409Z,60
2017-03-18T11:38:51.770Z,84
2017-03-18T11:40:02.086Z,84
2017-03-18T11:41:12.401Z,40
2017-03-18T11:42:22.978Z,44
2017-03-18T11:43:33.272Z,40
2017-03-18T11:44:43.575Z,36
2017-03-18T11:45:53.878Z,36
2017-03-18T11:47:04.201Z,56
2017-03-18T11:48:14.455Z,48
2017-03-18T11:49:24.453Z,48
2017-03-18T11:50:34.515Z,76
2017-03-18T11:51:44.809Z,72
2017-03-18T11:52:55.123Z,36
2017-03-18T11:54:05.689Z,36
2017-03-18T11:55:16.018Z,32
2017-03-18T11:56:26.335Z,40
2017-03-18T11:57:36.669Z,36
2017-03-18T11:58:46.976Z,36
2017-03-18T11:59:57.541Z,32
2017-03-18T12:01:07.553Z,32
2017-03-18T12:02:17.859Z,32
2017-03-18T12:03:27.898Z,36
2017-03-18T12:04:38.208Z,32
2017-03-18T12:05:48.796Z,32
2017-03-18T12:06:59.119Z,32
2017-03-18T12:08:09.435Z,40
2017-03-18T12:09:19.765Z,32
2017-03-18T12:10:30.235Z,40
2017-03-18T12:11:40.802Z,40
2017-03-18T12:12:51.114Z,52
2017-03-18T12:14:01.439Z,44
2017-03-18T12:15:11.743Z,60
2017-03-18T12:16:22.048Z,36
2017-03-18T12:17:32.668Z,72
2017-03-18T12:18:42.986Z,36
2017-03-18T12:19:53.305Z,36
2017-03-18T12:21:03.612Z,36
2017-03-18T12:22:13.939Z,40
2017-03-18T12:23:24.239Z,36
2017-03-18T12:24:34.568Z,60
2017-03-18T12:25:44.901Z,60
2017-03-18T12:26:55.238Z,64
2017-03-18T12:28:05.555Z,60
2017-03-18T12:29:16.141Z,64
2017-03-18T12:30:26.467Z,44
2017-03-18T12:31:36.787Z,68
2017-03-18T12:32:47.104Z,72
2017-03-18T12:33:57.444Z,44
2017-03-18T12:35:08.028Z,36
2017-03-18T12:36:18.361Z,40
2017-03-18T12:37:28.681Z,40
2017-03-18T12:38:38.991Z,40
2017-03-18T12:39:48.985Z,40
2017-03-18T12:40:59.560Z,48
2017-03-18T12:42:09.867Z,36
2017-03-18T12:43:20.191Z,32
2017-03-18T12:44:30.522Z,36
2017-03-18T12:45:40.863Z,36
2017-03-18T12:46:51.465Z,36
2017-03-18T12:48:01.802Z,60
2017-03-18T12:49:12.106Z,60
2017-03-18T12:50:22.447Z,40
2017-03-18T12:51:32.436Z,44
2017-03-18T12:52:42.691Z,60
2017-03-18T12:53:53.019Z,60
2017-03-18T12:55:03.349Z,40
2017-03-18T12:56:13.647Z,40
2017-03-18T12:57:23.953Z,40
2017-03-18T12:58:34.889Z,36
2017-03-18T12:59:45.189Z,44
2017-03-18T13:00:55.499Z,36
2017-03-18T13:02:05.810Z,32
2017-03-18T13:03:16.128Z,36
2017-03-18T13:04:26.761Z,28
2017-03-18T13:05:36.425Z,28
2017-03-18T13:06:46.748Z,32
2017-03-18T13:07:56.784Z,32
2017-03-18T13:09:07.121Z,32
2017-03-18T13:10:17.736Z,36
2017-03-18T13:11:27.737Z,32
2017-03-18T13:12:38.070Z,44
2017-03-18T13:13:48.399Z,32
2017-03-18T13:14:58.730Z,36
2017-03-18T13:16:09.277Z,40
2017-03-18T13:17:19.286Z,40
2017-03-18T13:18:29.280Z,44
2017-03-18T13:19:39.614Z,44
2017-03-18T13:20:49.936Z,40
2017-03-18T13:22:00.172Z,36
2017-03-18T13:23:10.486Z,36
2017-03-18T13:24:20.800Z,36
2017-03-18T13:25:31.116Z,36
2017-03-18T13:26:41.439Z,36
2017-03-18T13:27:51.737Z,32
2017-03-18T13:29:02.104Z,36
2017-03-18T13:30:12.105Z,36
2017-03-18T13:31:22.430Z,36
2017-03-18T13:32:32.486Z,48
2017-03-18T13:33:43.053Z,48
2017-03-18T13:34:53.372Z,40
2017-03-18T13:36:03.686Z,44
2017-03-18T13:37:13.999Z,48
2017-03-18T13:38:23.988Z,52
2017-03-18T13:39:34.545Z,52
2017-03-18T13:40:44.549Z,36
2017-03-18T13:41:54.861Z,52
2017-03-18T13:43:05.184Z,52
2017-03-18T13:44:14.573Z,52
2017-03-18T13:45:25.146Z,52
2017-03-18T13:46:35.459Z,40
2017-03-18T13:47:45.783Z,36
2017-03-18T13:48:56.118Z,36
2017-03-18T13:50:06.433Z,36
2017-03-18T13:51:16.698Z,40
2017-03-18T13:52:27.013Z,40
2017-03-18T13:53:37.340Z,32
2017-03-18T13:54:47.651Z,40
2017-03-18T13:55:57.963Z,32
2017-03-18T13:57:08.559Z,48
2017-03-18T13:58:18.895Z,44
2017-03-18T13:59:29.266Z,32
2017-03-18T14:00:39.602Z,32
2017-03-18T14:01:49.906Z,36
2017-03-18T14:03:00.489Z,32
2017-03-18T14:04:10.825Z,44
2017-03-18T14:05:21.138Z,44
2017-03-18T14:06:31.458Z,48
2017-03-18T14:07:41.763Z,44
2017-03-18T14:08:52.443Z,32
2017-03-18T14:10:02.749Z,44
2017-03-18T14:11:13.071Z,36
2017-03-18T14:12:23.391Z,44
2017-03-18T14:13:33.696Z,44
2017-03-18T14:14:44.346Z,36
2017-03-18T14:15:54.662Z,32
2017-03-18T14:17:04.990Z,32
2017-03-18T14:18:15.325Z,44
2017-03-18T14:19:25.327Z,44
2017-03-18T14:20:35.891Z,40
2017-03-18T14:21:46.214Z,44
2017-03-18T14:22:56.223Z,44
2017-03-18T14:24:06.559Z,40
2017-03-18T14:25:16.863Z,40
2017-03-18T14:26:27.491Z,40
2017-03-18T14:27:37.805Z,40
2017-03-18T14:28:48.121Z,36
2017-03-18T14:29:58.447Z,36
2017-03-18T14:31:08.754Z,36
2017-03-18T14:32:19.007Z,32
2017-03-18T14:33:29.312Z,32
2017-03-18T14:34:39.628Z,28
2017-03-18T14:35:49.941Z,24
2017-03-18T14:37:00.242Z,24
2017-03-18T14:38:10.502Z,24
2017-03-18T14:39:20.823Z,28
2017-03-18T14:40:31.164Z,24
2017-03-18T14:41:41.170Z,28
2017-03-18T14:42:51.481Z,32
2017-03-18T14:44:02.053Z,32
2017-03-18T14:45:12.377Z,28
2017-03-18T14:46:22.715Z,32
2017-03-18T14:47:32.704Z,32
2017-03-18T14:48:43.036Z,28
2017-03-18T14:49:53.631Z,24
2017-03-18T14:51:04.098Z,24
2017-03-18T14:52:14.410Z,20
2017-03-18T14:53:24.726Z,20
2017-03-18T14:54:35.036Z,20
2017-03-18T14:55:45.635Z,24
2017-03-18T14:56:55.933Z,20
2017-03-18T14:58:05.924Z,24
2017-03-18T14:59:15.609Z,20
2017-03-18T15:00:25.624Z,24
2017-03-18T15:01:36.345Z,20
2017-03-18T15:02:46.673Z,20
2017-03-18T15:03:57.012Z,24
2017-03-18T15:05:07.356Z,28
2017-03-18T15:06:17.711Z,32
2017-03-18T15:07:28.342Z,24
2017-03-18T15:08:38.361Z,20
2017-03-18T15:09:48.373Z,20
2017-03-18T15:10:58.072Z,20
2017-03-18T15:12:08.095Z,28
2017-03-18T15:13:18.708Z,24
2017-03-18T15:14:29.042Z,24
2017-03-18T15:15:39.372Z,20
2017-03-18T15:16:49.694Z,20
2017-03-18T15:18:00.034Z,16
2017-03-18T15:19:10.617Z,16
2017-03-18T15:20:20.949Z,20
2017-03-18T15:21:31.260Z,16
2017-03-18T15:22:41.587Z,16
2017-03-18T15:23:51.899Z,16
2017-03-18T15:25:02.461Z,12
2017-03-18T15:26:12.760Z,16
2017-03-18T15:27:23.081Z,16
2017-03-18T15:28:33.401Z,20
2017-03-18T15:29:43.715Z,20
2017-03-18T15:30:54.355Z,24
2017-03-18T15:32:04.674Z,20
2017-03-18T15:33:14.982Z,20
2017-03-18T15:34:24.994Z,16
2017-03-18T15:35:35.332Z,20
2017-03-18T15:36:45.937Z,16
2017-03-18T15:37:56.248Z,16
2017-03-18T15:39:06.563Z,20
2017-03-18T15:40:16.891Z,24
2017-03-18T15:41:27.214Z,20
2017-03-18T15:42:37.779Z,16
2017-03-18T15:43:48.099Z,20
2017-03-18T15:44:58.403Z,20
2017-03-18T15:46:08.722Z,16
2017-03-18T15:47:19.022Z,16
2017-03-18T15:48:29.650Z,16
2017-03-18T15:49:39.970Z,16
2017-03-18T15:50:50.293Z,12
2017-03-18T15:52:00.290Z,12
2017-03-18T15:53:10.676Z,16
2017-03-18T15:54:21.385Z,16
2017-03-18T15:55:31.694Z,16
2017-03-18T15:56:42.005Z,16
2017-03-18T15:57:52.300Z,12
2017-03-18T15:59:02.629Z,12
2017-03-18T16:00:13.195Z,12
2017-03-18T16:01:23.491Z,8
2017-03-18T16:02:33.809Z,8
2017-03-18T16:03:44.533Z,8
2017-03-18T16:04:54.843Z,8
2017-03-18T16:06:05.403Z,8
2017-03-18T16:07:15.701Z,8
2017-03-18T16:08:26.018Z,12
2017-03-18T16:09:36.479Z,8
2017-03-18T16:10:46.779Z,8
2017-03-18T16:11:57.435Z,12
2017-03-18T16:13:07.759Z,8
2017-03-18T16:14:17.784Z,8
2017-03-18T16:15:28.085Z,8
2017-03-18T16:16:38.395Z,8
2017-03-18T16:17:49.013Z,8
2017-03-18T16:18:59.329Z,8
2017-03-18T16:20:09.727Z,8
2017-03-18T16:21:20.056Z,8
2017-03-18T16:22:30.390Z,8
2017-03-18T16:23:41.014Z,12
2017-03-18T16:24:51.336Z,8
2017-03-18T16:26:01.648Z,8
2017-03-18T16:27:11.987Z,8
2017-03-18T16:28:21.678Z,8
2017-03-18T16:29:32.022Z,8
2017-03-18T16:30:42.331Z,4
2017-03-18T16:31:52.660Z,4
2017-03-18T16:33:02.981Z,4
2017-03-18T16:34:13.297Z,8
2017-03-18T16:35:23.861Z,8
2017-03-18T16:36:34.177Z,4
2017-03-18T16:37:44.489Z,4
2017-03-18T16:38:54.818Z,8
2017-03-18T16:40:05.148Z,8
2017-03-18T16:41:15.756Z,4
2017-03-18T16:42:25.752Z,4
2017-03-18T16:43:35.759Z,4
2017-03-18T16:44:46.068Z,4
2017-03-18T16:45:56.409Z,4
2017-03-18T16:47:07.045Z,4
2017-03-18T16:48:17.060Z,4
2017-03-18T16:49:27.410Z,8
2017-03-18T16:50:37.720Z,4
2017-03-18T16:51:48.042Z,4
2017-03-18T16:52:58.642Z,4
2017-03-18T16:54:08.971Z,4
2017-03-18T16:55:19.276Z,4
2017-03-18T16:56:29.586Z,4
2017-03-18T16:57:39.913Z,4
2017-03-18T16:58:50.547Z,4
2017-03-18T17:00:00.861Z,0
2017-03-18T17:01:11.166Z,4
2017-03-18T17:02:21.501Z,4